Tom Frazier — WDD4376 — position and weather

sailwx.info

Track history (hours):
 
Tides and Currents Weather Stations Pressure Air Temp Water Temp Dewpoint Dewpoint Depression Visibility Wind Speed Wind Dir Waves Ship Positions

Tom Frazier

Owner: American Commercial Lines LLC, Jeffersonville, IN. More information available from US FCC via Universal Licensing System and Coast Guard Vessel Documentation Center.

Last reported at 2017-Feb-16 17:34 UTC. Time now 2017-Mar-23 18:30 UTC.
Position N 38°54' W 090°13'.
Warning: this ship's position is 35 days out of date.

Length 48 m; draft 2.9 m.

Type: Tow > 200 m length. MMSI: 367143910.

Date/timePositionNaut miles runAvg speedWind from/ knotsBaromVisibWave heightAir tempDewpointWater temp
2017-Feb-16 17:34N 38°54' W 090°13'5 4.7
2017-Feb-16 16:34N 38°55' W 090°19'5 5.1
2017-Feb-16 15:34N 38°58' W 090°24'5 4.7
2017-Feb-16 14:34N 38°58' W 090°30'  
2017-Feb-13 16:28N 38°59' W 090°34'3 3.1
2017-Feb-13 15:34N 38°58' W 090°30'4 3.5
2017-Feb-13 14:34N 38°58' W 090°26'1 1.2
2017-Feb-13 13:34N 38°58' W 090°24'0 0.0
2017-Feb-13 12:33N 38°58' W 090°24'1 1.4
2017-Feb-13 11:34N 38°57' W 090°22'3 3.1
2017-Feb-13 10:34N 38°55' W 090°19'4 4.0
2017-Feb-13 09:33N 38°55' W 090°14'  
Track history (hours):
 
Tides and Currents Weather Stations Pressure Air Temp Water Temp Dewpoint Dewpoint Depression Visibility Wind Speed Wind Dir Waves Ship Positions

Tom Frazier

Owner: American Commercial Lines LLC, Jeffersonville, IN. More information available from US FCC via Universal Licensing System and Coast Guard Vessel Documentation Center.

Last reported at 2017-Feb-16 17:34 UTC. Time now 2017-Mar-23 18:30 UTC.
Position N 38°54' W 090°13'.
Warning: this ship's position is 35 days out of date.

Length 48 m; draft 2.9 m.

Type: Tow > 200 m length. MMSI: 367143910.

Date/timePositionNaut miles runAvg speedWind from/ knotsBaromVisibWave heightAir tempDewpointWater temp
2017-Feb-16 17:34N 38°54' W 090°13'5 4.7
2017-Feb-16 16:34N 38°55' W 090°19'5 5.1
2017-Feb-16 15:34N 38°58' W 090°24'5 4.7
2017-Feb-16 14:34N 38°58' W 090°30'  
2017-Feb-13 16:28N 38°59' W 090°34'3 3.1
2017-Feb-13 15:34N 38°58' W 090°30'4 3.5
2017-Feb-13 14:34N 38°58' W 090°26'1 1.2
2017-Feb-13 13:34N 38°58' W 090°24'0 0.0
2017-Feb-13 12:33N 38°58' W 090°24'1 1.4
2017-Feb-13 11:34N 38°57' W 090°22'3 3.1
2017-Feb-13 10:34N 38°55' W 090°19'4 4.0
2017-Feb-13 09:33N 38°55' W 090°14'  

Dump ship's entire track history